CheckWX is a tool to help pilots better visualize weather data.  It is not intended as a substitute for an official pre-flight weather briefing.

12:38:53 UTC

KMKT TAF
Mankato Regional Airport
Mankato, Minnesota, USA
KMKT 201133Z 2012/2112 17005KT P6SM VCSH SCT070 BKN120 TEMPO 2012/2013 3SM -TSRA BKN020CB FM201600 20007KT P6SM BKN040 FM201800 23005KT P6SM SCT040 FM202100 21010G17KT P6SM SCT060 FM210100 34009KT P6SM SKC

Aug-20@
12:00 UTC

Aug-20 @ 12:00 UTC

Aug-20@
16:00 UTC

Aug-20 @ 16:00 UTC

KMKT 201133Z 2012/2112 17005KT P6SM VCSH SCT070 BKN120
Wind
  • 170° at 5 KTS
Cloud Levels
  • Scattered at 7,000' AGL
  • Broken at 12,000' AGL

Aug-20@
12:00 UTC

Aug-20 @ 12:00 UTC

Aug-20@
13:00 UTC

Aug-20 @ 13:00 UTC

TEMPO 2012/2013 3SM -TSRA BKN020CB

Temporary

Temporary Changes expected for less than half the time period

Conditions
Light Thunderstorm, Light Rain
Cloud Levels
  • Broken at 2,000' AGL

Aug-20@
16:00 UTC

Aug-20 @ 16:00 UTC

Aug-20@
18:00 UTC

Aug-20 @ 18:00 UTC

FM201600 20007KT P6SM BKN040

From

From Standard forecast or significant change

Wind
  • 200° at 7 KTS
Cloud Levels
  • Broken at 4,000' AGL

Aug-20@
18:00 UTC

Aug-20 @ 18:00 UTC

Aug-20@
21:00 UTC

Aug-20 @ 21:00 UTC

FM201800 23005KT P6SM SCT040

From

From Standard forecast or significant change

Wind
  • 230° at 5 KTS
Cloud Levels
  • Scattered at 4,000' AGL

Aug-20@
21:00 UTC

Aug-20 @ 21:00 UTC

Aug-21@
01:00 UTC

Aug-21 @ 01:00 UTC

FM202100 21010G17KT P6SM SCT060

From

From Standard forecast or significant change

Wind
  • 210° at 10 KTS
  • {Gusting to 17 KTS
Cloud Levels
  • Scattered at 6,000' AGL

Aug-21@
01:00 UTC

Aug-21 @ 01:00 UTC

Aug-21@
12:00 UTC

Aug-21 @ 12:00 UTC

FM210100 34009KT P6SM SKC

From

From Standard forecast or significant change

Wind
  • 340° at 9 KTS
Cloud Levels
  • Clear skies